Time;durP1;ratioP1;P1;durP2;ratioP2;P2;SDS_P1;SDS_P2;PMS_P1;PMS_P2;Temp;Humidity;BMP_temperature;BMP_pressure;BME280_temperature;BME280_humidity;BME280_pressure;Samples;Min_cycle;Max_cycle;Signal;HPM_P1;HPM_P2
2022/07/15 00:01:36;;;;;;;9.00;2.38;;;14.40;99.90;;;;;;9177604;19;20899;-72
2022/07/15 00:04:40;;;;;;;8.85;1.90;;;14.30;99.90;;;;;;9175969;19;20018;-72
2022/07/15 00:07:44;;;;;;;8.25;1.83;;;14.40;99.90;;;;;;9178598;19;20060;-72
2022/07/15 00:10:48;;;;;;;10.88;2.08;;;14.60;99.90;;;;;;9181963;19;20040;-72
2022/07/15 00:13:52;;;;;;;7.25;1.80;;;14.40;99.90;;;;;;9182480;19;20026;-72
2022/07/15 00:16:58;;;;;;;10.15;1.80;;;14.60;99.90;;;;;;9177608;19;20010;-72
2022/07/15 00:20:02;;;;;;;8.85;2.03;;;14.60;99.90;;;;;;9177803;19;20025;-71
2022/07/15 00:23:08;;;;;;;10.48;2.08;;;14.30;99.90;;;;;;9180849;19;20503;-72
2022/07/15 00:26:12;;;;;;;8.77;1.90;;;14.60;99.90;;;;;;9174507;19;20014;-72
2022/07/15 00:29:15;;;;;;;7.32;1.90;;;14.50;99.90;;;;;;9174689;19;20152;-71
2022/07/15 00:32:22;;;;;;;7.38;1.80;;;14.30;99.90;;;;;;9178173;19;20026;-72
2022/07/15 00:35:27;;;;;;;7.00;1.63;;;14.20;99.90;;;;;;9178665;19;20025;-72
2022/07/15 00:38:30;;;;;;;7.90;1.70;;;14.30;99.90;;;;;;9179086;19;20471;-72
2022/07/15 00:41:38;;;;;;;7.30;1.60;;;14.40;99.90;;;;;;9177984;19;20318;-71
2022/07/15 00:44:43;;;;;;;7.82;1.80;;;14.40;99.90;;;;;;9175895;19;20033;-71
2022/07/15 00:47:51;;;;;;;7.40;1.63;;;14.30;99.90;;;;;;9177939;19;20052;-71
2022/07/15 00:50:55;;;;;;;5.97;1.67;;;14.20;99.90;;;;;;9177701;19;20487;-71
2022/07/15 00:54:00;;;;;;;7.03;1.70;;;14.40;99.90;;;;;;9176283;19;20018;-72
2022/07/15 00:57:05;;;;;;;7.50;2.00;;;14.30;99.90;;;;;;9179399;19;20431;-72
2022/07/15 01:00:11;;;;;;;5.30;1.63;;;14.40;99.90;;;;;;9178349;19;20352;-72
2022/07/15 01:03:19;;;;;;;6.88;1.67;;;14.40;99.90;;;;;;9177157;19;20032;-71
2022/07/15 01:06:23;;;;;;;7.55;1.70;;;14.10;99.90;;;;;;9177449;19;20018;-72
2022/07/15 01:09:27;;;;;;;6.07;1.70;;;14.10;99.90;;;;;;9179561;19;20483;-71
2022/07/15 01:12:32;;;;;;;10.57;1.80;;;14.30;99.90;;;;;;9178638;19;20025;-72
2022/07/15 01:15:36;;;;;;;6.90;1.90;;;13.90;99.90;;;;;;9179469;19;20034;-71
2022/07/15 01:18:42;;;;;;;6.93;1.90;;;14.10;99.90;;;;;;9176940;19;20019;-71
2022/07/15 01:21:49;;;;;;;6.30;1.50;;;14.30;99.90;;;;;;9176043;19;20019;-71
2022/07/15 01:24:53;;;;;;;13.85;1.73;;;14.10;99.90;;;;;;9178036;19;20018;-71
2022/07/15 01:27:57;;;;;;;7.20;1.80;;;14.40;99.90;;;;;;9178263;19;20025;-72
2022/07/15 01:31:01;;;;;;;10.30;1.88;;;14.10;99.90;;;;;;9177419;19;20018;-72
2022/07/15 01:34:04;;;;;;;6.60;1.35;;;14.10;99.90;;;;;;9177559;19;20022;-72
2022/07/15 01:37:12;;;;;;;5.70;1.77;;;13.70;99.90;;;;;;9179891;19;20010;-71
2022/07/15 01:40:16;;;;;;;7.30;1.80;;;14.10;99.90;;;;;;9181905;19;20419;-71
2022/07/15 01:43:19;;;;;;;8.75;1.67;;;14.00;99.90;;;;;;9186990;19;20454;-72
2022/07/15 01:46:23;;;;;;;8.40;1.65;;;14.00;99.90;;;;;;9187379;19;20019;-71
2022/07/15 01:49:31;;;;;;;6.18;1.48;;;13.90;99.90;;;;;;9184074;19;20096;-71
2022/07/15 01:52:38;;;;;;;7.28;1.67;;;13.90;99.90;;;;;;9185243;19;20484;-72
2022/07/15 01:55:41;;;;;;;9.05;1.70;;;13.90;99.90;;;;;;9185717;19;20038;-71
2022/07/15 01:58:45;;;;;;;5.45;1.67;;;13.90;99.90;;;;;;9187378;19;20037;-71
2022/07/15 02:01:49;;;;;;;8.38;1.65;;;13.70;99.90;;;;;;9184086;19;20086;-71
2022/07/15 02:04:53;;;;;;;4.07;1.30;;;13.90;99.90;;;;;;9183913;19;20018;-72
2022/07/15 02:07:59;;;;;;;5.55;1.50;;;13.90;99.90;;;;;;9186785;19;20074;-71
2022/07/15 02:11:03;;;;;;;7.85;1.70;;;14.00;99.90;;;;;;9187869;19;20026;-72
2022/07/15 02:14:07;;;;;;;11.10;2.08;;;13.60;99.90;;;;;;9184369;19;20014;-71
2022/07/15 02:17:11;;;;;;;6.22;1.67;;;13.90;99.90;;;;;;9181680;19;20022;-71
2022/07/15 02:20:15;;;;;;;7.13;2.00;;;13.90;99.90;;;;;;9184173;19;20488;-72
2022/07/15 02:23:21;;;;;;;5.38;1.35;;;14.00;99.90;;;;;;9185876;19;20094;-71
2022/07/15 02:26:25;;;;;;;8.10;1.80;;;13.80;99.90;;;;;;9185977;19;20021;-72
2022/07/15 02:29:29;;;;;;;8.40;1.90;;;13.80;99.90;;;;;;9184260;19;20030;-71
2022/07/15 02:32:33;;;;;;;7.78;1.70;;;13.70;99.90;;;;;;9186079;19;20471;-71
2022/07/15 02:35:38;;;;;;;10.32;1.88;;;13.60;99.90;;;;;;9184095;19;20497;-71
2022/07/15 02:38:45;;;;;;;8.43;1.73;;;13.50;99.90;;;;;;9183707;19;20024;-72
2022/07/15 02:41:49;;;;;;;7.50;1.70;;;13.40;99.90;;;;;;9182022;19;20018;-71
2022/07/15 02:44:53;;;;;;;8.55;2.05;;;13.40;99.90;;;;;;9181251;19;20395;-72
2022/07/15 02:47:57;;;;;;;7.75;1.73;;;13.50;99.90;;;;;;9184709;19;20486;-72
2022/07/15 02:51:01;;;;;;;9.63;2.22;;;13.40;99.90;;;;;;9175857;19;20010;-72
2022/07/15 02:54:07;;;;;;;6.25;1.52;;;13.30;99.90;;;;;;9182790;19;20022;-72
2022/07/15 02:57:11;;;;;;;6.00;1.60;;;13.30;99.90;;;;;;9183636;19;20081;-72
2022/07/15 03:00:19;;;;;;;7.00;1.75;;;13.30;99.90;;;;;;9184842;19;20024;-72
2022/07/15 03:03:23;;;;;;;4.15;1.45;;;13.30;99.90;;;;;;9183200;19;20039;-72
2022/07/15 03:06:27;;;;;;;9.82;2.22;;;13.30;99.90;;;;;;9183666;19;20018;-72
2022/07/15 03:09:33;;;;;;;8.73;2.00;;;13.20;99.90;;;;;;9178601;19;20014;-72
2022/07/15 03:12:37;;;;;;;5.75;1.55;;;13.20;99.90;;;;;;9184222;19;20015;-72
2022/07/15 03:15:41;;;;;;;6.93;1.80;;;13.10;99.90;;;;;;9182361;19;20506;-72
2022/07/15 03:18:45;;;;;;;5.43;1.63;;;13.10;99.90;;;;;;9182597;19;20087;-72
2022/07/15 03:21:49;;;;;;;6.65;1.65;;;13.10;99.90;;;;;;9181240;19;20011;-72
2022/07/15 03:24:57;;;;;;;7.25;1.63;;;13.10;99.90;;;;;;9181335;19;20341;-71
2022/07/15 03:28:00;;;;;;;6.40;2.00;;;13.10;99.90;;;;;;9184304;19;20033;-72
2022/07/15 03:31:04;;;;;;;5.25;1.92;;;13.10;99.90;;;;;;9182186;19;20357;-71
2022/07/15 03:34:09;;;;;;;6.97;1.90;;;13.10;99.90;;;;;;9181473;19;20015;-71
2022/07/15 03:37:14;;;;;;;6.22;1.98;;;13.10;99.90;;;;;;9183369;19;20034;-71
2022/07/15 03:40:21;;;;;;;6.47;1.95;;;12.80;99.90;;;;;;9180838;19;20406;-72
2022/07/15 03:43:29;;;;;;;6.65;1.80;;;13.00;99.90;;;;;;9179945;19;20379;-72
2022/07/15 03:46:33;;;;;;;8.35;1.88;;;13.00;99.90;;;;;;9181822;19;20025;-71
2022/07/15 03:49:37;;;;;;;7.80;2.03;;;13.10;99.90;;;;;;9182429;19;20038;-72
2022/07/15 03:52:41;;;;;;;5.80;1.30;;;13.00;99.90;;;;;;9180563;19;20049;-72
2022/07/15 03:55:50;;;;;;;7.75;1.60;;;13.10;99.90;;;;;;9179519;19;20055;-72
2022/07/15 03:58:54;;;;;;;7.93;1.50;;;13.10;99.90;;;;;;9171486;19;20100;-71
2022/07/15 04:01:58;;;;;;;4.90;1.50;;;13.10;99.90;;;;;;9173379;19;20015;-69
2022/07/15 04:05:02;;;;;;;6.00;1.60;;;13.00;99.90;;;;;;9180428;19;20056;-69
2022/07/15 04:08:06;;;;;;;4.50;1.63;;;12.90;99.90;;;;;;9175873;19;20014;-69
2022/07/15 04:11:14;;;;;;;3.72;1.40;;;12.90;99.90;;;;;;9181984;19;20017;-69
2022/07/15 04:14:18;;;;;;;3.65;1.27;;;13.10;99.90;;;;;;9181027;19;20378;-69
2022/07/15 04:17:22;;;;;;;5.75;1.67;;;13.00;99.90;;;;;;9172597;19;20021;-69
2022/07/15 04:20:25;;;;;;;3.08;1.23;;;13.00;99.90;;;;;;9181725;19;20056;-69
2022/07/15 04:23:30;;;;;;;5.07;1.35;;;13.10;99.90;;;;;;9177106;19;20353;-69
2022/07/15 04:26:36;;;;;;;5.72;1.50;;;13.20;99.90;;;;;;9176394;19;20051;-69
2022/07/15 04:29:40;;;;;;;4.68;1.50;;;13.00;99.90;;;;;;9181513;19;20025;-69
2022/07/15 04:32:45;;;;;;;7.00;1.70;;;13.10;99.90;;;;;;9176035;19;20014;-69
2022/07/15 04:35:49;;;;;;;3.67;1.55;;;13.10;99.90;;;;;;9180326;19;20014;-69
2022/07/15 04:38:53;;;;;;;3.75;1.15;;;13.20;99.90;;;;;;9180118;19;20014;-69
2022/07/15 04:42:02;;;;;;;2.97;1.02;;;13.20;99.90;;;;;;9173288;19;20082;-69
2022/07/15 04:45:10;;;;;;;4.85;1.05;;;13.20;99.90;;;;;;9173805;19;20021;-69
2022/07/15 04:51:30;;;;;;;3.58;1.17;;;13.20;99.90;;;;;;9178171;19;20021;-69
2022/07/15 04:54:34;;;;;;;6.05;1.15;;;13.20;99.90;;;;;;9180211;19;20029;-69
2022/07/15 04:57:41;;;;;;;6.35;1.38;;;13.40;99.90;;;;;;9180441;19;20066;-69
2022/07/15 05:00:46;;;;;;;5.05;1.38;;;13.30;99.90;;;;;;9179026;19;20029;-69
2022/07/15 05:03:50;;;;;;;2.97;1.10;;;13.30;99.90;;;;;;9172889;19;20032;-69
2022/07/15 05:06:54;;;;;;;7.00;1.30;;;13.30;99.90;;;;;;9176129;19;20018;-69
2022/07/15 05:09:58;;;;;;;7.38;1.55;;;;;;;;;;9178110;19;20078;-69
2022/07/15 05:13:05;;;;;;;4.70;1.30;;;13.30;99.90;;;;;;9176343;19;20021;-69
2022/07/15 05:16:09;;;;;;;3.90;1.38;;;13.50;99.90;;;;;;9178437;19;20019;-69
2022/07/15 05:19:13;;;;;;;3.17;1.08;;;13.40;99.90;;;;;;9176640;19;20360;-69
2022/07/15 05:22:18;;;;;;;7.53;1.60;;;13.40;99.90;;;;;;9175872;19;20368;-70
2022/07/15 05:25:22;;;;;;;5.22;1.20;;;13.20;99.90;;;;;;9179297;19;20028;-70
2022/07/15 05:28:28;;;;;;;3.67;1.25;;;13.20;99.90;;;;;;9180291;19;20021;-69
2022/07/15 05:31:32;;;;;;;3.95;1.38;;;13.20;99.90;;;;;;9176969;19;20081;-69
2022/07/15 05:34:36;;;;;;;3.13;1.13;;;13.30;99.90;;;;;;9178760;19;20014;-69
2022/07/15 05:37:40;;;;;;;5.80;1.60;;;13.30;99.90;;;;;;9180389;19;20018;-69
2022/07/15 05:40:44;;;;;;;6.15;1.20;;;13.40;99.90;;;;;;9174325;19;20023;-69
2022/07/15 05:43:52;;;;;;;4.43;1.20;;;13.40;99.90;;;;;;9171257;19;20018;-69
2022/07/15 05:46:56;;;;;;;4.78;1.30;;;13.50;99.90;;;;;;9171589;19;20002;-69
2022/07/15 05:49:59;;;;;;;5.28;1.60;;;13.50;99.90;;;;;;9179996;19;20014;-70
2022/07/15 05:53:03;;;;;;;6.10;1.20;;;13.50;99.90;;;;;;9174770;19;20015;-68
2022/07/15 05:56:08;;;;;;;3.22;1.40;;;13.50;99.90;;;;;;9172528;19;20025;-68
2022/07/15 05:59:15;;;;;;;6.00;1.50;;;13.40;99.90;;;;;;9177196;19;20018;-69
2022/07/15 06:02:19;;;;;;;5.30;1.23;;;13.40;99.90;;;;;;9175655;19;20032;-67
2022/07/15 06:05:23;;;;;;;4.47;1.30;;;13.40;99.90;;;;;;9171129;19;20011;-66
2022/07/15 06:08:27;;;;;;;5.57;1.30;;;;;;;;;;9171736;19;20018;-67
2022/07/15 06:11:31;;;;;;;5.03;1.20;;;13.50;99.90;;;;;;9170472;19;20034;-67
2022/07/15 06:14:37;;;;;;;8.07;1.52;;;13.50;99.90;;;;;;9168594;19;20046;-68
2022/07/15 06:17:41;;;;;;;3.17;1.10;;;13.50;99.90;;;;;;9166459;19;20015;-67
2022/07/15 06:20:45;;;;;;;3.92;1.33;;;13.60;99.90;;;;;;9164755;19;20082;-67
2022/07/15 06:23:53;;;;;;;4.18;1.40;;;13.70;99.90;;;;;;9170744;19;20090;-69
2022/07/15 06:26:57;;;;;;;3.80;1.20;;;13.80;99.90;;;;;;9183679;19;20687;-67
2022/07/15 06:30:03;;;;;;;5.65;1.20;;;13.90;99.90;;;;;;9185627;19;20011;-67
2022/07/15 06:33:07;;;;;;;4.75;1.00;;;14.00;99.90;;;;;;9187437;19;20015;-68
2022/07/15 06:36:12;;;;;;;4.78;1.30;;;14.10;99.90;;;;;;9184567;19;20022;-67
2022/07/15 06:39:16;;;;;;;5.38;1.20;;;14.10;99.90;;;;;;9185528;19;20023;-67
2022/07/15 06:42:20;;;;;;;7.80;1.10;;;14.50;99.90;;;;;;9183543;19;20013;-67
2022/07/15 06:45:27;;;;;;;4.65;1.05;;;14.60;99.90;;;;;;9184382;19;20010;-67
2022/07/15 06:48:32;;;;;;;4.18;0.90;;;14.50;99.90;;;;;;9178106;19;20368;-67
2022/07/15 06:51:36;;;;;;;3.08;1.00;;;14.50;99.90;;;;;;9181098;19;20604;-67
2022/07/15 06:54:39;;;;;;;6.43;1.00;;;14.10;99.90;;;;;;9187604;19;20463;-69
2022/07/15 06:57:43;;;;;;;5.63;1.52;;;14.90;99.90;;;;;;9184283;19;20039;-68
2022/07/15 07:00:50;;;;;;;3.60;0.90;;;13.80;99.90;;;;;;9183189;19;20519;-67
2022/07/15 07:03:54;;;;;;;4.05;1.02;;;14.60;99.90;;;;;;9183156;19;20017;-68
2022/07/15 07:06:58;;;;;;;2.25;1.00;;;14.60;99.90;;;;;;9185909;19;20022;-68
2022/07/15 07:10:02;;;;;;;3.47;0.90;;;14.20;99.90;;;;;;9184147;19;20022;-68
2022/07/15 07:13:06;;;;;;;3.22;0.90;;;14.50;99.90;;;;;;9184807;19;20176;-68
2022/07/15 07:16:13;;;;;;;2.80;1.05;;;14.50;99.90;;;;;;9180546;19;20018;-68
2022/07/15 07:19:17;;;;;;;2.58;1.10;;;14.20;99.90;;;;;;9180170;19;20027;-68
2022/07/15 07:22:21;;;;;;;2.35;0.80;;;14.30;99.90;;;;;;9184067;19;20044;-68
2022/07/15 07:25:24;;;;;;;4.28;1.27;;;14.20;99.90;;;;;;9181866;19;20018;-68
2022/07/15 07:28:28;;;;;;;4.78;0.70;;;14.00;99.90;;;;;;9182776;19;20018;-68
2022/07/15 07:31:35;;;;;;;2.30;0.70;;;14.40;99.90;;;;;;9182149;19;20543;-68
2022/07/15 07:34:39;;;;;;;1.85;0.75;;;14.00;99.90;;;;;;9182317;19;20014;-68
2022/07/15 07:37:42;;;;;;;1.40;0.80;;;14.40;99.90;;;;;;9183137;19;20030;-68
2022/07/15 07:40:47;;;;;;;4.43;0.90;;;14.50;99.90;;;;;;9183593;19;20015;-68
2022/07/15 07:43:51;;;;;;;2.80;0.95;;;14.40;99.90;;;;;;9180326;19;20032;-68
2022/07/15 07:46:59;;;;;;;4.07;1.08;;;14.40;99.90;;;;;;9180558;19;20534;-68
2022/07/15 07:50:02;;;;;;;1.98;0.90;;;14.70;99.90;;;;;;9181057;19;20019;-68
2022/07/15 07:53:06;;;;;;;1.85;0.70;;;14.70;99.90;;;;;;9184861;19;20496;-68
2022/07/15 07:56:11;;;;;;;1.02;0.68;;;14.60;99.90;;;;;;9177965;19;20399;-68
2022/07/15 07:59:15;;;;;;;3.33;0.88;;;14.80;99.90;;;;;;9179456;19;20156;-68
2022/07/15 08:02:21;;;;;;;2.42;0.75;;;15.10;99.90;;;;;;9182626;19;20089;-68
2022/07/15 08:05:25;;;;;;;4.90;0.93;;;14.90;99.90;;;;;;9182894;19;20022;-68
2022/07/15 08:08:29;;;;;;;3.50;1.08;;;14.90;99.90;;;;;;9175435;19;20015;-68
2022/07/15 08:11:33;;;;;;;2.85;0.77;;;15.50;99.90;;;;;;9178969;19;20380;-67
2022/07/15 08:14:38;;;;;;;2.67;0.82;;;15.00;99.90;;;;;;9184952;19;20018;-68
2022/07/15 08:17:44;;;;;;;4.13;1.90;;;15.10;99.90;;;;;;9176805;19;20018;-68
2022/07/15 08:20:49;;;;;;;2.10;0.77;;;14.90;99.90;;;;;;9182050;19;20089;-68
2022/07/15 08:23:54;;;;;;;3.35;1.10;;;15.10;99.90;;;;;;9175865;19;20032;-68
2022/07/15 08:26:58;;;;;;;3.85;1.00;;;15.00;99.90;;;;;;9179261;19;20006;-68
2022/07/15 08:30:02;;;;;;;2.35;0.93;;;15.00;99.90;;;;;;9183465;19;20015;-68
2022/07/15 08:33:09;;;;;;;2.40;0.90;;;15.50;99.90;;;;;;9179677;19;20026;-68
2022/07/15 08:36:13;;;;;;;3.25;0.80;;;15.20;99.90;;;;;;9181531;19;20021;-67
2022/07/15 08:39:17;;;;;;;3.20;1.00;;;15.40;99.90;;;;;;9181441;19;20022;-68
2022/07/15 08:42:21;;;;;;;4.47;1.40;;;15.30;99.90;;;;;;9182893;19;20380;-68
2022/07/15 08:45:25;;;;;;;3.88;1.15;;;15.30;99.90;;;;;;9179904;19;20077;-67
2022/07/15 08:48:37;;;;;;;5.85;1.63;;;15.70;99.90;;;;;;9178169;19;20011;-68
2022/07/15 08:51:45;;;;;;;4.82;1.10;;;15.50;99.90;;;;;;9178323;19;20010;-68
2022/07/15 08:54:51;;;;;;;2.83;0.98;;;15.60;99.90;;;;;;9176220;19;20017;-68
2022/07/15 08:57:56;;;;;;;4.65;0.98;;;15.60;99.90;;;;;;9177808;19;20013;-68
2022/07/15 09:01:00;;;;;;;2.70;0.95;;;15.80;99.90;;;;;;9173232;19;20025;-68
2022/07/15 09:04:07;;;;;;;2.10;0.80;;;15.80;99.90;;;;;;9178106;19;20029;-68
2022/07/15 09:07:11;;;;;;;2.70;0.80;;;15.70;99.90;;;;;;9178832;19;20042;-68
2022/07/15 09:10:15;;;;;;;3.85;0.85;;;16.00;99.90;;;;;;9177642;19;20017;-69
2022/07/15 09:13:32;;;;;;;4.22;1.10;;;16.10;99.90;;;;;;9178212;19;20018;-68
2022/07/15 09:16:37;;;;;;;1.17;0.57;;;16.10;99.90;;;;;;9176304;19;20015;-68
2022/07/15 09:20:07;;;;;;;1.20;0.80;;;16.10;99.90;;;;;;9177649;19;20011;-68
2022/07/15 09:23:12;;;;;;;3.22;0.93;;;16.00;99.90;;;;;;9174708;19;20018;-68
2022/07/15 09:26:28;;;;;;;2.50;0.70;;;16.10;99.90;;;;;;9180230;19;20022;-68
2022/07/15 09:36:22;;;;;;;2.70;1.00;;;16.00;99.90;;;;;;9180394;19;20010;-67
2022/07/15 09:39:27;;;;;;;2.22;0.60;;;15.80;99.90;;;;;;9176035;19;20034;-67
2022/07/15 09:42:32;;;;;;;1.30;0.70;;;16.20;99.90;;;;;;9177409;19;20388;-68
2022/07/15 09:45:37;;;;;;;4.22;1.65;;;16.10;99.90;;;;;;9177813;19;20048;-67
2022/07/15 09:48:43;;;;;;;2.10;0.73;;;16.30;99.90;;;;;;9174034;19;20046;-68
2022/07/15 09:51:53;;;;;;;2.78;0.95;;;16.70;99.90;;;;;;9175996;19;20010;-67
2022/07/15 09:54:57;;;;;;;3.88;1.52;;;16.70;99.90;;;;;;9177847;19;20014;-68
2022/07/15 09:58:04;;;;;;;2.78;0.70;;;16.70;99.90;;;;;;9175904;19;20541;-67
2022/07/15 10:01:09;;;;;;;4.93;1.65;;;16.80;99.90;;;;;;9180628;19;20018;-68
2022/07/15 10:04:13;;;;;;;3.28;1.17;;;16.80;99.90;;;;;;9178788;19;20018;-67
2022/07/15 10:07:21;;;;;;;2.22;0.90;;;17.00;99.90;;;;;;9179201;19;20520;-67
2022/07/15 10:10:26;;;;;;;1.80;0.77;;;17.10;99.90;;;;;;9182422;19;20025;-68
2022/07/15 10:13:53;;;;;;;1.90;0.70;;;17.00;99.90;;;;;;9182367;19;20010;-67
2022/07/15 10:17:39;;;;;;;3.20;1.50;;;16.90;99.90;;;;;;9181103;19;20025;-67
2022/07/15 10:20:54;;;;;;;2.53;1.20;;;16.90;99.90;;;;;;9184659;19;20547;-67
2022/07/15 10:24:35;;;;;;;8.35;3.00;;;16.80;99.90;;;;;;9184499;19;20015;-67
2022/07/15 10:27:54;;;;;;;4.35;1.48;;;16.40;99.90;;;;;;9183043;19;20018;-67
2022/07/15 10:31:17;;;;;;;5.45;1.27;;;16.30;99.90;;;;;;9186260;19;20014;-66
2022/07/15 10:34:23;;;;;;;3.53;1.00;;;16.30;99.90;;;;;;9180641;19;20019;-67
2022/07/15 10:37:28;;;;;;;1.85;1.02;;;16.30;99.90;;;;;;9184192;19;20417;-67
2022/07/15 10:41:06;;;;;;;4.05;1.27;;;16.40;99.90;;;;;;9181567;19;20433;-68
2022/07/15 10:44:13;;;;;;;2.17;1.05;;;16.10;99.90;;;;;;9176384;19;20123;-67
2022/07/15 10:47:21;;;;;;;3.58;1.38;;;16.30;99.90;;;;;;9184224;19;20014;-67
2022/07/15 10:50:41;;;;;;;1.67;0.90;;;16.30;99.90;;;;;;9183173;19;20052;-69
2022/07/15 10:53:46;;;;;;;2.35;1.08;;;16.40;99.90;;;;;;9179826;19;20014;-71
2022/07/15 10:56:53;;;;;;;3.33;1.05;;;16.40;99.90;;;;;;9180946;19;20044;-70
2022/07/15 10:59:58;;;;;;;2.65;1.30;;;16.40;99.90;;;;;;9181971;19;20356;-69
2022/07/15 11:03:09;;;;;;;7.60;1.75;;;16.40;99.90;;;;;;9181106;19;20019;-69
2022/07/15 11:06:13;;;;;;;2.13;1.08;;;16.60;99.90;;;;;;9185266;19;20044;-69
2022/07/15 11:09:47;;;;;;;4.30;1.08;;;16.50;99.90;;;;;;9182930;19;20503;-68
2022/07/15 11:13:02;;;;;;;2.10;0.80;;;16.50;99.90;;;;;;9171405;19;20018;-70
2022/07/15 11:16:06;;;;;;;0.88;0.70;;;16.70;99.90;;;;;;9185806;19;20022;-69
2022/07/15 11:19:14;;;;;;;2.38;0.80;;;16.80;99.90;;;;;;9180665;19;20014;-70
2022/07/15 11:22:20;;;;;;;1.38;0.95;;;16.60;99.90;;;;;;9179096;19;20040;-70
2022/07/15 11:25:26;;;;;;;0.90;0.80;;;16.60;99.90;;;;;;9179331;19;20392;-70
2022/07/15 11:28:32;;;;;;;3.17;0.75;;;16.80;99.90;;;;;;9180997;19;20052;-69
2022/07/15 11:31:43;;;;;;;3.40;1.00;;;17.00;99.90;;;;;;9179483;19;20078;-69
2022/07/15 11:34:48;;;;;;;1.10;0.80;;;17.00;99.90;;;;;;9182880;19;20044;-69
2022/07/15 11:38:00;;;;;;;1.73;0.90;;;16.80;99.90;;;;;;9182831;19;20498;-69
2022/07/15 11:44:34;;;;;;;3.55;0.90;;;16.90;99.90;;;;;;9179015;19;20018;-69
2022/07/15 11:47:52;;;;;;;4.50;1.20;;;16.70;99.90;;;;;;9179164;19;20018;-68
2022/07/15 11:50:58;;;;;;;3.28;1.10;;;16.90;99.90;;;;;;9178378;19;20028;-67
2022/07/15 11:54:02;;;;;;;3.08;0.90;;;16.60;99.90;;;;;;9177910;19;20134;-68
2022/07/15 11:57:08;;;;;;;4.47;1.13;;;16.30;99.90;;;;;;9178603;19;20086;-69
2022/07/15 12:00:16;;;;;;;3.17;1.20;;;16.30;99.90;;;;;;9176101;19;20042;-70
2022/07/15 12:03:23;;;;;;;3.10;1.17;;;16.20;99.90;;;;;;9167981;19;20029;-68
2022/07/15 12:06:30;;;;;;;4.47;1.35;;;16.50;99.90;;;;;;9178640;19;20018;-69
2022/07/15 12:09:42;;;;;;;3.67;1.42;;;16.00;99.90;;;;;;9180016;19;20034;-68
2022/07/15 12:12:56;;;;;;;3.13;1.20;;;16.20;99.90;;;;;;9167305;19;20022;-69
2022/07/15 12:16:03;;;;;;;4.95;1.02;;;16.10;99.90;;;;;;9182356;19;20038;-69
2022/07/15 12:19:10;;;;;;;2.42;1.20;;;16.50;99.90;;;;;;9178766;19;20055;-69
2022/07/15 12:22:14;;;;;;;4.70;1.55;;;16.50;99.90;;;;;;9176486;19;20027;-69
2022/07/15 12:25:22;;;;;;;2.05;1.00;;;16.60;99.90;;;;;;9172978;19;20015;-69
2022/07/15 12:28:32;;;;;;;2.95;1.00;;;16.60;99.90;;;;;;9179221;19;20020;-70
2022/07/15 12:31:40;;;;;;;1.40;0.80;;;16.80;99.90;;;;;;9176509;19;20015;-69
2022/07/15 12:34:52;;;;;;;2.10;0.95;;;16.90;99.90;;;;;;9178059;19;20096;-69
2022/07/15 12:37:56;;;;;;;2.05;1.00;;;17.10;99.90;;;;;;9182988;19;20352;-70
2022/07/15 12:41:07;;;;;;;2.75;1.35;;;16.90;99.90;;;;;;9173194;19;20077;-69
2022/07/15 12:44:13;;;;;;;2.97;0.90;;;16.60;99.90;;;;;;9176926;19;20015;-69
2022/07/15 12:47:22;;;;;;;3.78;1.25;;;16.60;99.90;;;;;;9176110;19;20011;-69
2022/07/15 12:50:26;;;;;;;4.05;1.75;;;16.40;99.90;;;;;;9180783;19;20026;-69
2022/07/15 12:53:41;;;;;;;2.42;1.30;;;16.40;99.90;;;;;;9176240;19;20431;-69
2022/07/15 12:56:54;;;;;;;3.40;1.15;;;16.30;99.90;;;;;;9174750;19;20371;-69
2022/07/15 13:00:00;;;;;;;2.72;1.20;;;16.30;99.90;;;;;;9167361;19;20715;-68
2022/07/15 13:03:09;;;;;;;3.47;1.20;;;16.20;99.90;;;;;;9174844;19;20047;-69
2022/07/15 13:06:14;;;;;;;2.70;1.20;;;16.10;99.90;;;;;;9180397;19;20025;-69
2022/07/15 13:09:18;;;;;;;4.38;1.40;;;16.10;99.90;;;;;;9177250;19;20479;-67
2022/07/15 13:12:22;;;;;;;3.65;1.67;;;16.00;99.90;;;;;;9174919;19;20058;-71
2022/07/15 13:15:26;;;;;;;5.75;1.80;;;16.10;99.90;;;;;;9179942;19;20021;-70
2022/07/15 13:18:34;;;;;;;2.88;1.40;;;16.10;99.90;;;;;;9166097;19;20484;-68
2022/07/15 13:21:38;;;;;;;4.65;1.60;;;15.80;99.90;;;;;;9178147;19;20021;-68
2022/07/15 13:24:41;;;;;;;7.13;2.22;;;15.60;99.90;;;;;;9170705;19;20376;-68
2022/07/15 13:27:46;;;;;;;4.55;1.63;;;15.80;99.90;;;;;;9166809;19;20025;-68
2022/07/15 13:30:51;;;;;;;5.00;1.80;;;15.80;99.90;;;;;;9167559;19;20023;-67
2022/07/15 13:33:57;;;;;;;6.05;2.15;;;15.80;99.90;;;;;;9113577;19;73864;-72
2022/07/15 13:37:01;;;;;;;4.65;2.10;;;15.90;99.90;;;;;;9182452;19;20018;-71
2022/07/15 13:40:06;;;;;;;4.18;1.50;;;16.00;99.90;;;;;;9169734;19;20045;-71
2022/07/15 13:43:10;;;;;;;6.13;2.00;;;16.20;99.90;;;;;;9187818;19;20022;-70
2022/07/15 13:46:14;;;;;;;3.85;1.60;;;16.30;99.90;;;;;;9188753;19;20040;-71
2022/07/15 13:51:22;;;;;;;3.95;1.80;;;16.30;99.90;;;;;;9186028;19;20679;-69
2022/07/15 13:52:43;;;;;;;4.40;1.35;;;16.40;99.90;;;;;;9188314;19;20017;-70
2022/07/15 13:55:47;;;;;;;3.88;1.85;;;16.60;99.90;;;;;;9183071;19;20018;-70
2022/07/15 13:58:51;;;;;;;4.13;1.60;;;16.60;99.90;;;;;;9184708;19;20025;-70
2022/07/15 14:01:55;;;;;;;4.15;1.60;;;16.70;99.90;;;;;;9188485;19;20338;-70
2022/07/15 14:05:02;;;;;;;6.55;1.30;;;16.60;99.90;;;;;;9180161;19;20031;-70
2022/07/15 14:08:06;;;;;;;2.97;1.30;;;16.70;99.90;;;;;;9188321;19;20022;-69
2022/07/15 14:11:10;;;;;;;3.63;1.23;;;16.70;99.90;;;;;;9180676;19;20029;-69
2022/07/15 14:14:15;;;;;;;6.00;1.75;;;16.80;99.90;;;;;;9187614;19;20092;-70
2022/07/15 14:17:20;;;;;;;3.67;1.58;;;16.90;99.90;;;;;;9181051;19;20016;-70
2022/07/15 14:20:27;;;;;;;3.92;1.60;;;16.90;99.90;;;;;;9184065;19;20014;-69
2022/07/15 14:23:31;;;;;;;8.93;2.88;;;17.10;99.90;;;;;;9188378;19;20056;-70
2022/07/15 14:26:35;;;;;;;2.85;1.70;;;17.30;99.90;;;;;;9188225;19;20104;-70
2022/07/15 14:29:38;;;;;;;2.35;1.30;;;17.40;99.90;;;;;;9182408;19;20015;-70
2022/07/15 14:32:43;;;;;;;3.45;2.05;;;17.70;99.90;;;;;;9186900;19;20525;-70
2022/07/15 14:35:49;;;;;;;4.00;1.67;;;17.60;99.90;;;;;;9181733;19;20085;-70
2022/07/15 14:38:53;;;;;;;5.32;2.05;;;17.80;99.90;;;;;;9182301;19;20021;-69
2022/07/15 14:41:57;;;;;;;3.33;1.45;;;18.10;99.90;;;;;;9182657;19;20018;-70
2022/07/15 14:45:01;;;;;;;2.42;1.50;;;18.10;99.90;;;;;;9177594;19;20018;-70
2022/07/15 14:48:06;;;;;;;3.60;1.60;;;20.30;99.90;;;;;;9178916;19;20019;-67
2022/07/15 14:51:12;;;;;;;4.03;1.77;;;18.50;99.90;;;;;;9181905;19;20015;-67
2022/07/15 14:54:16;;;;;;;5.53;1.92;;;18.80;99.90;;;;;;9182247;19;20078;-69
2022/07/15 14:57:21;;;;;;;2.67;1.73;;;19.00;99.90;;;;;;9180519;19;20014;-67
2022/07/15 15:00:25;;;;;;;5.75;2.60;;;19.10;99.90;;;;;;9183475;19;20056;-68
2022/07/15 15:03:29;;;;;;;3.58;1.35;;;19.10;99.90;;;;;;9182056;19;20010;-68
2022/07/15 15:06:36;;;;;;;6.53;2.55;;;19.10;99.90;;;;;;9182219;19;20078;-66
2022/07/15 15:09:39;;;;;;;6.78;2.92;;;19.10;99.90;;;;;;9181688;19;20566;-66
2022/07/15 15:12:43;;;;;;;10.25;3.50;;;18.90;99.90;;;;;;9180909;19;20026;-66
2022/07/15 15:15:48;;;;;;;6.03;2.03;;;18.70;99.90;;;;;;9182361;19;20581;-67
2022/07/15 15:18:52;;;;;;;2.75;1.40;;;18.50;99.90;;;;;;9177874;19;20019;-66
2022/07/15 15:21:59;;;;;;;2.97;1.40;;;18.20;99.90;;;;;;9180287;19;20014;-66
2022/07/15 15:25:03;;;;;;;3.33;1.08;;;18.10;99.90;;;;;;9183666;19;20040;-67
2022/07/15 15:28:07;;;;;;;3.47;2.20;;;17.70;99.90;;;;;;9179335;19;20037;-66
2022/07/15 15:31:11;;;;;;;2.25;1.40;;;17.80;99.90;;;;;;9180188;19;20022;-67
2022/07/15 15:34:15;;;;;;;4.10;1.70;;;17.80;99.90;;;;;;9181636;19;20090;-68
2022/07/15 15:37:22;;;;;;;8.95;3.90;;;17.80;99.90;;;;;;9179308;19;20029;-67
2022/07/15 15:40:26;;;;;;;3.15;1.50;;;18.00;99.90;;;;;;9178447;19;20021;-68
2022/07/15 15:43:30;;;;;;;3.33;1.60;;;17.80;99.90;;;;;;9183642;19;20070;-68
2022/07/15 15:46:34;;;;;;;9.73;3.00;;;17.90;99.90;;;;;;9180438;19;20015;-68
2022/07/15 15:49:38;;;;;;;4.93;1.60;;;17.70;99.90;;;;;;9038348;19;20010;-69
2022/07/15 15:52:45;;;;;;;3.72;1.83;;;18.00;99.90;;;;;;9181099;19;20010;-68
2022/07/15 15:55:49;;;;;;;7.80;4.03;;;18.20;99.90;;;;;;9181788;19;20153;-68
2022/07/15 15:58:54;;;;;;;7.03;2.10;;;18.20;99.90;;;;;;9175869;19;20014;-68
2022/07/15 16:01:57;;;;;;;5.57;2.00;;;18.40;99.90;;;;;;9182245;19;20018;-68
2022/07/15 16:05:01;;;;;;;5.65;2.42;;;18.50;99.90;;;;;;9176296;19;20379;-68
2022/07/15 16:08:08;;;;;;;11.45;4.38;;;18.40;99.90;;;;;;9183630;19;20070;-70
2022/07/15 16:11:12;;;;;;;3.97;1.77;;;18.40;99.90;;;;;;9180733;19;20505;-69
2022/07/15 16:14:16;;;;;;;3.35;1.40;;;18.40;99.90;;;;;;9177699;19;20070;-69
2022/07/15 16:17:20;;;;;;;4.32;1.60;;;18.30;99.90;;;;;;9177627;19;20065;-69
2022/07/15 16:20:24;;;;;;;8.00;3.30;;;18.50;99.90;;;;;;9179271;19;20074;-68
2022/07/15 16:23:28;;;;;;;5.60;1.95;;;18.30;99.90;;;;;;9155725;19;20017;-70